Time;durP1;ratioP1;P1;durP2;ratioP2;P2;SDS_P1;SDS_P2;PMS_P1;PMS_P2;Temp;Humidity;BMP_temperature;BMP_pressure;BME280_temperature;BME280_humidity;BME280_pressure;Samples;Min_cycle;Max_cycle;Signal;HPM_P1;HPM_P2
2022/04/25 00:00:56;;;;;;;31.43;18.93;;;;;;;;;;6268449;28;20025;-81
2022/04/25 00:03:57;;;;;;;33.27;18.70;;;;;;;;;;6285186;28;20384;-81
2022/04/25 00:06:57;;;;;;;40.13;21.30;;;;;;;;;;6298179;28;20320;-81
2022/04/25 00:09:57;;;;;;;56.85;32.53;;;;;;;;;;6294293;28;20029;-81
2022/04/25 00:12:57;;;;;;;73.07;34.70;;;;;;;;;;6290233;28;20465;-81
2022/04/25 00:15:58;;;;;;;95.65;42.97;;;;;;;;;;6273181;28;20432;-81
2022/04/25 00:18:59;;;;;;;70.05;35.67;;;;;;;;;;6280088;28;20437;-81
2022/04/25 00:22:00;;;;;;;45.10;24.75;;;;;;;;;;6297516;28;20020;-81
2022/04/25 00:25:02;;;;;;;42.08;24.25;;;;;;;;;;6292245;28;20024;-81
2022/04/25 00:28:03;;;;;;;39.50;22.13;;;;;;;;;;6296656;28;20356;-81
2022/04/25 00:31:04;;;;;;;51.95;26.48;;;;;;;;;;6296569;28;20118;-81
2022/04/25 00:34:04;;;;;;;49.17;25.08;;;;;;;;;;6295318;28;20017;-81
2022/04/25 00:37:04;;;;;;;49.20;29.10;;;;;;;;;;6273089;28;20048;-81
2022/04/25 00:40:04;;;;;;;56.65;31.90;;;;;;;;;;6272869;28;20258;-81
2022/04/25 00:43:05;;;;;;;63.58;32.03;;;;;;;;;;6272274;28;20029;-81
2022/04/25 00:46:05;;;;;;;64.75;35.47;;;;;;;;;;6287997;28;20028;-81
2022/04/25 00:49:06;;;;;;;61.38;34.17;;;;;;;;;;6287645;28;20021;-81
2022/04/25 00:52:06;;;;;;;61.30;31.30;;;;;;;;;;6271885;28;20017;-81
2022/04/25 00:55:07;;;;;;;55.75;30.65;;;;;;;;;;6280460;28;20021;-81
2022/04/25 00:58:08;;;;;;;45.50;26.40;;;;;;;;;;6296519;28;20028;-81
2022/04/25 01:01:08;;;;;;;48.90;25.33;;;;;;;;;;6297201;28;20025;-81
2022/04/25 01:04:09;;;;;;;44.43;27.00;;;;;;;;;;6295490;28;20032;-81
2022/04/25 01:07:10;;;;;;;50.70;26.95;;;;;;;;;;6295805;28;20291;-81
2022/04/25 01:10:10;;;;;;;52.03;30.58;;;;;;;;;;6293282;28;20395;-81
2022/04/25 01:13:11;;;;;;;59.55;30.40;;;;;;;;;;6294179;28;20032;-81
2022/04/25 01:16:12;;;;;;;65.63;34.22;;;;;;;;;;6295700;28;20067;-81
2022/04/25 01:19:13;;;;;;;55.88;29.45;;;;;;;;;;6288453;28;20385;-81
2022/04/25 01:22:14;;;;;;;49.97;26.15;;;;;;;;;;6272066;28;20044;-81
2022/04/25 01:28:34;;;;;;;62.88;35.00;;;;;;;;;;6297211;28;20033;-81
2022/04/25 01:31:34;;;;;;;62.95;36.20;;;;;;;;;;6296302;28;20497;-81
2022/04/25 01:34:38;;;;;;;57.00;31.98;;;;;;;;;;6295308;28;20016;-81
2022/04/25 01:37:38;;;;;;;56.15;31.83;;;;;;;;;;6295313;28;20016;-81
2022/04/25 01:40:38;;;;;;;47.72;23.48;;;;;;;;;;6296233;28;20024;-81
2022/04/25 01:43:38;;;;;;;38.22;19.33;;;;;;;;;;6296277;28;20021;-81
2022/04/25 01:46:39;;;;;;;24.50;13.90;;;;;;;;;;6296512;28;20023;-81
2022/04/25 01:49:39;;;;;;;23.37;10.93;;;;;;;;;;6295394;28;20021;-80
2022/04/25 01:52:39;;;;;;;20.90;11.55;;;;;;;;;;6294386;28;20347;-81
2022/04/25 01:55:40;;;;;;;17.33;9.30;;;;;;;;;;6294977;28;20017;-81
2022/04/25 01:58:40;;;;;;;24.27;11.63;;;;;;;;;;6295898;28;20444;-80
2022/04/25 02:01:40;;;;;;;30.60;13.83;;;;;;;;;;6282902;28;20454;-80
2022/04/25 02:04:41;;;;;;;27.70;14.57;;;;;;;;;;6286803;28;20622;-81
2022/04/25 02:07:41;;;;;;;21.17;12.38;;;;;;;;;;6295662;28;20013;-80
2022/04/25 02:11:19;;;;;;;26.08;12.65;;;;;;;;;;6288404;28;20040;-80
2022/04/25 02:14:01;;;;;;;27.75;13.15;;;;;;;;;;6270747;28;20082;-80
2022/04/25 02:17:02;;;;;;;25.63;14.90;;;;;;;;;;6270757;28;20013;-80
2022/04/25 02:20:02;;;;;;;27.58;13.00;;;;;;;;;;6294059;28;20017;-80
2022/04/25 02:23:03;;;;;;;21.10;10.63;;;;;;;;;;6295181;28;20113;-80
2022/04/25 02:26:05;;;;;;;21.45;10.55;;;;;;;;;;6293495;28;20572;-80
2022/04/25 02:29:05;;;;;;;22.42;12.70;;;;;;;;;;6295315;28;20028;-80
2022/04/25 02:32:06;;;;;;;20.90;12.43;;;;;;;;;;6294828;28;20036;-80
2022/04/25 02:35:06;;;;;;;27.63;14.88;;;;;;;;;;6293403;28;20494;-80
2022/04/25 02:38:06;;;;;;;28.45;15.52;;;;;;;;;;6293578;28;20170;-80
2022/04/25 02:41:09;;;;;;;37.03;20.20;;;;;;;;;;6293957;28;20024;-80
2022/04/25 02:44:09;;;;;;;45.90;24.70;;;;;;;;;;6294371;28;20262;-80
2022/04/25 02:47:09;;;;;;;45.03;24.63;;;;;;;;;;6293864;28;20403;-80
2022/04/25 02:50:09;;;;;;;37.63;22.27;;;;;;;;;;6293084;28;20023;-80
2022/04/25 02:53:10;;;;;;;48.30;26.05;;;;;;;;;;6294236;28;20181;-80
2022/04/25 02:56:10;;;;;;;32.10;18.77;;;;;;;;;;6293972;28;20048;-80
2022/04/25 02:59:10;;;;;;;40.90;24.03;;;;;;;;;;6292953;28;20255;-80
2022/04/25 03:02:10;;;;;;;52.70;26.97;;;;;;;;;;6288798;28;20262;-80
2022/04/25 03:05:11;;;;;;;48.45;26.65;;;;;;;;;;6290071;28;20263;-80
2022/04/25 03:08:12;;;;;;;54.25;28.73;;;;;;;;;;6294615;28;20052;-80
2022/04/25 03:11:12;;;;;;;35.00;19.90;;;;;;;;;;6279105;28;20051;-80
2022/04/25 03:14:12;;;;;;;35.43;20.73;;;;;;;;;;6268773;28;20319;-80
2022/04/25 03:17:13;;;;;;;32.83;20.73;;;;;;;;;;6284652;28;20350;-80
2022/04/25 03:20:14;;;;;;;35.80;21.42;;;;;;;;;;6284127;28;20261;-80
2022/04/25 03:23:15;;;;;;;34.05;17.75;;;;;;;;;;6292929;28;20017;-80
2022/04/25 03:26:15;;;;;;;25.15;14.48;;;;;;;;;;6289303;28;20028;-80
2022/04/25 03:29:16;;;;;;;23.85;14.35;;;;;;;;;;6292414;28;20501;-81
2022/04/25 03:32:17;;;;;;;28.38;13.68;;;;;;;;;;6291855;28;20020;-80
2022/04/25 03:35:18;;;;;;;29.42;14.32;;;;;;;;;;6280963;28;20381;-79
2022/04/25 03:38:18;;;;;;;24.42;14.15;;;;;;;;;;6268898;28;20025;-80
2022/04/25 03:41:18;;;;;;;24.05;13.82;;;;;;;;;;6267811;28;20550;-80
2022/04/25 03:44:19;;;;;;;30.63;14.50;;;;;;;;;;6268872;28;20028;-81
2022/04/25 03:47:19;;;;;;;22.63;12.60;;;;;;;;;;6269138;28;20028;-80
2022/04/25 03:50:19;;;;;;;28.88;15.32;;;;;;;;;;6268871;28;20052;-80
2022/04/25 03:53:19;;;;;;;26.83;14.10;;;;;;;;;;6267755;28;20070;-81
2022/04/25 03:59:39;;;;;;;26.98;14.25;;;;;;;;;;6293722;28;20036;-80
2022/04/25 04:02:40;;;;;;;29.23;15.73;;;;;;;;;;6286738;28;20024;-80
2022/04/25 04:05:43;;;;;;;27.37;15.03;;;;;;;;;;6294008;28;20479;-80
2022/04/25 04:08:43;;;;;;;28.42;16.48;;;;;;;;;;6292373;28;20262;-80
2022/04/25 04:11:46;;;;;;;33.75;17.00;;;;;;;;;;6277743;28;20462;-80
2022/04/25 04:14:47;;;;;;;32.90;18.35;;;;;;;;;;6283421;28;20024;-81
2022/04/25 04:17:47;;;;;;;33.58;21.17;;;;;;;;;;6268767;28;20095;-80
2022/04/25 04:20:47;;;;;;;42.38;22.25;;;;;;;;;;6289802;28;20429;-80
2022/04/25 04:23:47;;;;;;;34.97;23.47;;;;;;;;;;6288723;28;20103;-81
2022/04/25 04:26:48;;;;;;;48.58;29.35;;;;;;;;;;6291636;28;20255;-81
2022/04/25 04:29:48;;;;;;;39.50;25.40;;;;;;;;;;6292140;28;20020;-81
2022/04/25 04:32:50;;;;;;;39.05;23.30;;;;;;;;;;6293052;28;20290;-80
2022/04/25 04:39:09;;;;;;;43.63;26.15;;;;;;;;;;6268429;28;20025;-80
2022/04/25 04:42:09;;;;;;;48.20;27.67;;;;;;;;;;6268361;28;20036;-80
2022/04/25 04:45:13;;;;;;;47.20;27.73;;;;;;;;;;6269200;28;20865;-80
2022/04/25 04:48:13;;;;;;;46.28;27.20;;;;;;;;;;6292640;28;20802;-81
2022/04/25 04:51:14;;;;;;;50.78;31.80;;;;;;;;;;6283491;28;20021;-80
2022/04/25 04:54:14;;;;;;;51.30;31.90;;;;;;;;;;6282657;28;20029;-80
2022/04/25 04:57:14;;;;;;;57.33;33.58;;;;;;;;;;6282445;28;20263;-80
2022/04/25 05:00:15;;;;;;;58.87;36.47;;;;;;;;;;6295042;28;20392;-81
2022/04/25 05:03:15;;;;;;;56.13;35.08;;;;;;;;;;6284448;28;20283;-81
2022/04/25 05:06:16;;;;;;;55.97;31.98;;;;;;;;;;6281025;28;20063;-80
2022/04/25 05:09:16;;;;;;;47.00;29.00;;;;;;;;;;6284490;28;20025;-81
2022/04/25 05:12:17;;;;;;;43.57;28.33;;;;;;;;;;6284432;28;20061;-80
2022/04/25 05:15:17;;;;;;;27.48;16.63;;;;;;;;;;6270016;28;20390;-81
2022/04/25 05:18:19;;;;;;;31.63;18.52;;;;;;;;;;6274289;28;20016;-82
2022/04/25 05:21:19;;;;;;;28.65;17.27;;;;;;;;;;6288956;28;20025;-82
2022/04/25 05:24:19;;;;;;;30.40;19.57;;;;;;;;;;6290009;28;20487;-81
2022/04/25 05:27:20;;;;;;;31.13;21.98;;;;;;;;;;6296245;28;21029;-81
2022/04/25 05:30:21;;;;;;;32.40;20.70;;;;;;;;;;6295851;28;20021;-82
2022/04/25 05:33:21;;;;;;;31.67;20.23;;;;;;;;;;6278836;28;20408;-82
2022/04/25 05:36:21;;;;;;;32.23;20.43;;;;;;;;;;6276147;28;20012;-82
2022/04/25 05:39:22;;;;;;;33.73;19.97;;;;;;;;;;6279567;28;20504;-82
2022/04/25 05:42:22;;;;;;;29.85;19.48;;;;;;;;;;6274033;28;20256;-81
2022/04/25 05:45:23;;;;;;;30.53;19.77;;;;;;;;;;6275975;28;20484;-81
2022/04/25 05:52:02;;;;;;;35.83;21.00;;;;;;;;;;6295352;28;20028;-83
2022/04/25 05:55:02;;;;;;;34.65;22.88;;;;;;;;;;6287245;28;20021;-83
2022/04/25 05:58:03;;;;;;;31.20;20.80;;;;;;;;;;6279785;28;20023;-82
2022/04/25 06:01:03;;;;;;;30.00;19.40;;;;;;;;;;6294370;28;20020;-83
2022/04/25 06:04:04;;;;;;;29.35;18.17;;;;;;;;;;6284282;28;20456;-83
2022/04/25 06:07:05;;;;;;;26.73;18.40;;;;;;;;;;6293150;28;20475;-83
2022/04/25 06:10:05;;;;;;;34.60;21.00;;;;;;;;;;6290086;28;20067;-84
2022/04/25 06:13:08;;;;;;;31.75;21.10;;;;;;;;;;6281819;28;20045;-84
2022/04/25 06:16:08;;;;;;;31.50;18.25;;;;;;;;;;6281860;28;20489;-84
2022/04/25 06:19:09;;;;;;;30.80;19.42;;;;;;;;;;6286823;28;20031;-83
2022/04/25 06:22:09;;;;;;;24.30;17.52;;;;;;;;;;6270519;28;20045;-83
2022/04/25 06:25:10;;;;;;;27.40;16.03;;;;;;;;;;6279677;28;20024;-83
2022/04/25 06:28:10;;;;;;;25.87;15.20;;;;;;;;;;6294319;28;20024;-83
2022/04/25 06:31:10;;;;;;;21.13;14.20;;;;;;;;;;6293338;28;20028;-81
2022/04/25 06:34:10;;;;;;;22.10;13.87;;;;;;;;;;6277459;28;20029;-82
2022/04/25 06:37:10;;;;;;;21.50;14.50;;;;;;;;;;6287864;28;20024;-82
2022/04/25 06:40:11;;;;;;;23.23;13.90;;;;;;;;;;6270543;28;20053;-81
2022/04/25 06:43:13;;;;;;;21.17;13.53;;;;;;;;;;6271207;28;20052;-81
2022/04/25 06:46:14;;;;;;;24.55;15.02;;;;;;;;;;6268834;28;20396;-81
2022/04/25 06:49:20;;;;;;;20.40;13.50;;;;;;;;;;6268933;28;20021;-81
2022/04/25 06:52:23;;;;;;;25.83;15.50;;;;;;;;;;6269896;28;20021;-81
2022/04/25 06:55:23;;;;;;;23.67;15.95;;;;;;;;;;6281572;28;20029;-81
2022/04/25 06:58:26;;;;;;;23.27;16.23;;;;;;;;;;6294717;28;20032;-80
2022/04/25 07:01:26;;;;;;;20.63;14.80;;;;;;;;;;6294217;28;20391;-80
2022/04/25 07:04:26;;;;;;;19.80;13.43;;;;;;;;;;6294209;28;20040;-80
2022/04/25 07:07:27;;;;;;;20.87;12.33;;;;;;;;;;6293367;28;20421;-80
2022/04/25 07:10:27;;;;;;;18.77;11.13;;;;;;;;;;6291477;28;20016;-80
2022/04/25 07:13:27;;;;;;;17.07;11.63;;;;;;;;;;6293511;28;20448;-80
2022/04/25 07:16:28;;;;;;;17.37;10.87;;;;;;;;;;6294139;28;20158;-80
2022/04/25 07:19:28;;;;;;;17.93;11.17;;;;;;;;;;6293706;28;20016;-80
2022/04/25 07:29:06;;;;;;;17.00;12.00;;;;;;;;;;6294231;28;20484;-80
2022/04/25 07:32:06;;;;;;;16.63;10.80;;;;;;;;;;6285131;28;20042;-80
2022/04/25 07:35:08;;;;;;;18.37;11.03;;;;;;;;;;6278904;28;20033;-80
2022/04/25 07:38:09;;;;;;;18.90;10.93;;;;;;;;;;6269243;28;20115;-79
2022/04/25 07:41:09;;;;;;;15.48;11.05;;;;;;;;;;6279639;28;20025;-80
2022/04/25 07:44:10;;;;;;;15.07;11.27;;;;;;;;;;6283271;28;20036;-80
2022/04/25 07:47:11;;;;;;;16.47;10.60;;;;;;;;;;6290123;28;20033;-80
2022/04/25 07:50:11;;;;;;;16.27;11.37;;;;;;;;;;6277973;28;20108;-81
2022/04/25 07:53:11;;;;;;;16.20;9.17;;;;;;;;;;6274638;28;20418;-81
2022/04/25 07:56:13;;;;;;;14.67;9.47;;;;;;;;;;6286213;28;20396;-81
2022/04/25 07:59:14;;;;;;;12.25;8.32;;;;;;;;;;6292566;28;20025;-81
2022/04/25 08:02:17;;;;;;;17.67;9.82;;;;;;;;;;6291998;28;20021;-81
2022/04/25 08:05:17;;;;;;;15.40;10.18;;;;;;;;;;6288345;28;20029;-82
2022/04/25 08:08:17;;;;;;;16.47;11.23;;;;;;;;;;6267242;28;20485;-81
2022/04/25 08:11:18;;;;;;;14.63;9.93;;;;;;;;;;6282994;28;20090;-81
2022/04/25 08:20:56;;;;;;;16.88;10.20;;;;;;;;;;6291268;28;20476;-81
2022/04/25 08:23:57;;;;;;;14.33;10.47;;;;;;;;;;6282999;28;20048;-80
2022/04/25 08:26:57;;;;;;;16.43;9.63;;;;;;;;;;6297998;28;20441;-80
2022/04/25 08:29:58;;;;;;;13.67;10.07;;;;;;;;;;6296899;28;20043;-80
2022/04/25 08:32:59;;;;;;;16.23;10.10;;;;;;;;;;6296907;28;20058;-80
2022/04/25 08:35:59;;;;;;;16.80;11.00;;;;;;;;;;6295255;28;20028;-80
2022/04/25 08:39:00;;;;;;;13.07;8.13;;;;;;;;;;6271434;28;20020;-80
2022/04/25 08:42:01;;;;;;;16.17;10.40;;;;;;;;;;6272854;28;20036;-80
2022/04/25 08:45:03;;;;;;;15.43;10.35;;;;;;;;;;6272157;28;20036;-80
2022/04/25 08:48:03;;;;;;;13.05;9.05;;;;;;;;;;6272656;28;20040;-80
2022/04/25 08:51:07;;;;;;;11.87;8.23;;;;;;;;;;6287387;28;20100;-80
2022/04/25 08:54:08;;;;;;;12.38;8.05;;;;;;;;;;6295425;28;20062;-80
2022/04/25 08:57:08;;;;;;;;;;;;;;;;;;6289252;28;20032;-79
2022/04/25 09:00:09;;;;;;;11.43;6.88;;;;;;;;;;6276547;28;19936;-80
2022/04/25 09:03:10;;;;;;;11.73;7.20;;;;;;;;;;6273531;28;20087;-80
2022/04/25 09:06:11;;;;;;;13.40;6.95;;;;;;;;;;6270531;28;20074;-80
2022/04/25 09:09:11;;;;;;;12.03;6.97;;;;;;;;;;6277629;28;20140;-80
2022/04/25 09:12:14;;;;;;;10.50;6.03;;;;;;;;;;6274513;28;20049;-80
2022/04/25 09:15:18;;;;;;;11.57;6.75;;;;;;;;;;6280521;28;20120;-80
2022/04/25 09:18:19;;;;;;;12.15;6.95;;;;;;;;;;6283828;28;20025;-80
2022/04/25 09:21:19;;;;;;;12.18;6.97;;;;;;;;;;6273135;28;20491;-80
2022/04/25 09:24:20;;;;;;;13.13;7.70;;;;;;;;;;6276798;28;20063;-80
2022/04/25 09:27:23;;;;;;;11.40;7.20;;;;;;;;;;6277355;28;20009;-80
2022/04/25 09:30:24;;;;;;;15.73;8.02;;;;;;;;;;6283823;28;20092;-80
2022/04/25 09:33:24;;;;;;;12.63;6.78;;;;;;;;;;6271643;28;20021;-80
2022/04/25 09:36:25;;;;;;;9.13;5.43;;;;;;;;;;6276860;28;20017;-80
2022/04/25 09:39:26;;;;;;;9.80;5.70;;;;;;;;;;6278336;28;20472;-80
2022/04/25 09:42:27;;;;;;;7.53;4.97;;;;;;;;;;6278373;28;20021;-80
2022/04/25 09:45:27;;;;;;;11.05;5.65;;;;;;;;;;6270789;28;20029;-80
2022/04/25 09:48:28;;;;;;;14.60;7.77;;;;;;;;;;6273290;28;20075;-81
2022/04/25 09:51:28;;;;;;;10.23;6.87;;;;;;;;;;6279822;28;20072;-80
2022/04/25 09:54:29;;;;;;;12.93;6.23;;;;;;;;;;6279659;28;20017;-80
2022/04/25 09:57:30;;;;;;;14.40;8.87;;;;;;;;;;6276730;28;20028;-80
2022/04/25 10:00:33;;;;;;;17.90;12.25;;;;;;;;;;6276870;28;20247;-80
2022/04/25 10:03:35;;;;;;;15.15;9.48;;;;;;;;;;6283926;28;20420;-80
2022/04/25 10:06:35;;;;;;;14.00;8.32;;;;;;;;;;6283302;28;20055;-80
2022/04/25 10:09:36;;;;;;;13.27;8.40;;;;;;;;;;6288207;28;20016;-80
2022/04/25 10:12:36;;;;;;;11.90;6.93;;;;;;;;;;6296114;28;20538;-80
2022/04/25 10:15:40;;;;;;;16.00;8.57;;;;;;;;;;6302164;28;20364;-80
2022/04/25 10:18:41;;;;;;;20.65;9.88;;;;;;;;;;6278562;28;20023;-80
2022/04/25 10:21:41;;;;;;;13.27;8.33;;;;;;;;;;6292676;28;20380;-79
2022/04/25 10:24:43;;;;;;;13.33;7.57;;;;;;;;;;6283613;28;20396;-79
2022/04/25 10:27:43;;;;;;;9.63;6.18;;;;;;;;;;6290338;28;20438;-79
2022/04/25 10:30:46;;;;;;;9.63;5.87;;;;;;;;;;6283456;28;20055;-80
2022/04/25 10:33:51;;;;;;;10.50;5.13;;;;;;;;;;6270368;28;20028;-80
2022/04/25 10:36:51;;;;;;;7.88;5.25;;;;;;;;;;6285274;28;20017;-80
2022/04/25 10:39:51;;;;;;;9.33;5.00;;;;;;;;;;6289419;28;20433;-80
2022/04/25 10:46:13;;;;;;;13.18;6.38;;;;;;;;;;6292713;28;20025;-80
2022/04/25 10:49:27;;;;;;;33.42;14.77;;;;;;;;;;6294336;28;20028;-80
2022/04/25 10:55:43;;;;;;;12.02;6.50;;;;;;;;;;6284254;28;20012;-81
2022/04/25 10:58:43;;;;;;;11.75;6.63;;;;;;;;;;6285825;28;20020;-82
2022/04/25 11:01:46;;;;;;;9.53;5.17;;;;;;;;;;6287540;28;20107;-81
2022/04/25 11:04:46;;;;;;;9.80;4.72;;;;;;;;;;6275113;28;20373;-81
2022/04/25 11:07:47;;;;;;;9.18;5.13;;;;;;;;;;6274293;28;20335;-81
2022/04/25 11:10:48;;;;;;;7.90;4.13;;;;;;;;;;6282206;28;20032;-81
2022/04/25 11:13:49;;;;;;;11.00;4.47;;;;;;;;;;6288103;28;20392;-81
2022/04/25 11:17:08;;;;;;;5.67;4.13;;;;;;;;;;6276776;28;20111;-81
2022/04/25 11:20:10;;;;;;;12.45;6.53;;;;;;;;;;6284814;28;20309;-81
2022/04/25 11:23:23;;;;;;;15.82;8.27;;;;;;;;;;6286818;28;20083;-81
2022/04/25 11:26:23;;;;;;;19.50;10.27;;;;;;;;;;6289977;28;20462;-81
2022/04/25 11:29:24;;;;;;;21.15;13.20;;;;;;;;;;6289325;28;20025;-81
2022/04/25 11:32:26;;;;;;;21.40;12.85;;;;;;;;;;6277661;28;20377;-81
2022/04/25 11:35:26;;;;;;;36.92;23.60;;;;;;;;;;6273428;28;20032;-78
2022/04/25 11:39:50;;;;;;;47.17;28.10;;;;;;;;;;6292534;28;20484;-78
2022/04/25 11:41:54;;;;;;;44.47;29.60;;;;;;;;;;6268156;28;20378;-78
2022/04/25 11:44:55;;;;;;;46.27;29.07;;;;;;;;;;6277076;28;20027;-78
2022/04/25 11:47:56;;;;;;;46.22;28.77;;;;;;;;;;6276425;28;20255;-79
2022/04/25 11:50:56;;;;;;;50.03;32.67;;;;;;;;;;6267116;28;20021;-79
2022/04/25 11:54:01;;;;;;;47.75;31.70;;;;;;;;;;6277654;28;20024;-79
2022/04/25 11:57:02;;;;;;;58.08;34.55;;;;;;;;;;6291285;28;20120;-79
2022/04/25 12:00:06;;;;;;;59.20;35.28;;;;;;;;;;6309778;28;20024;-80
2022/04/25 12:03:17;;;;;;;56.35;32.95;;;;;;;;;;6300631;28;20263;-80
2022/04/25 12:06:17;;;;;;;54.65;36.42;;;;;;;;;;6295248;28;20020;-80
2022/04/25 12:15:42;;;;;;;29.13;18.95;;;;;;;;;;6272390;28;20476;-81
2022/04/25 12:18:47;;;;;;;16.08;10.13;;;;;;;;;;6276409;28;20481;-81
2022/04/25 12:21:58;;;;;;;13.18;9.10;;;;;;;;;;6297279;28;20027;-81
2022/04/25 12:25:33;;;;;;;12.60;7.57;;;;;;;;;;6284271;28;20016;-81
2022/04/25 12:28:37;;;;;;;12.90;7.10;;;;;;;;;;6269912;28;20036;-81
2022/04/25 12:31:45;;;;;;;13.57;8.55;;;;;;;;;;6285413;28;20019;-82
2022/04/25 12:34:47;;;;;;;12.75;7.45;;;;;;;;;;6282976;28;20062;-82
2022/04/25 12:37:47;;;;;;;10.18;5.43;;;;;;;;;;6280432;28;20070;-81
2022/04/25 12:40:57;;;;;;;14.97;8.90;;;;;;;;;;6286419;28;20020;-81
2022/04/25 12:44:11;;;;;;;13.18;8.05;;;;;;;;;;6278411;28;20555;-81
2022/04/25 12:47:15;;;;;;;12.85;8.65;;;;;;;;;;6285159;28;20017;-81
2022/04/25 12:50:15;;;;;;;13.93;9.88;;;;;;;;;;6273976;28;20023;-81
2022/04/25 12:53:15;;;;;;;18.00;10.67;;;;;;;;;;6273583;28;20349;-82
2022/04/25 12:56:21;;;;;;;15.17;10.87;;;;;;;;;;6277604;28;20116;-81
2022/04/25 12:59:26;;;;;;;14.82;9.40;;;;;;;;;;6284084;28;20147;-81
2022/04/25 13:02:26;;;;;;;12.05;8.70;;;;;;;;;;6286342;28;20063;-81
2022/04/25 13:05:26;;;;;;;12.10;8.00;;;;;;;;;;6278299;28;20017;-81
2022/04/25 13:08:26;;;;;;;12.83;9.07;;;;;;;;;;6287795;28;20024;-80
2022/04/25 13:11:27;;;;;;;15.27;10.33;;;;;;;;;;6283041;28;20128;-80
2022/04/25 13:14:27;;;;;;;13.07;9.43;;;;;;;;;;6274668;28;20094;-80
2022/04/25 13:17:27;;;;;;;13.30;10.27;;;;;;;;;;6271113;28;20033;-80
2022/04/25 13:20:31;;;;;;;12.80;10.13;;;;;;;;;;6289672;28;20027;-80
2022/04/25 13:23:31;;;;;;;17.90;12.80;;;;;;;;;;6296150;28;20116;-80
2022/04/25 13:26:31;;;;;;;16.87;11.63;;;;;;;;;;6296425;28;20017;-81
2022/04/25 13:29:32;;;;;;;13.03;10.10;;;;;;;;;;6296880;28;20024;-80
2022/04/25 13:32:33;;;;;;;12.87;8.20;;;;;;;;;;6285774;28;20020;-80
2022/04/25 13:35:33;;;;;;;11.55;7.28;;;;;;;;;;6286911;28;20032;-80
2022/04/25 13:38:34;;;;;;;13.40;9.02;;;;;;;;;;6289482;28;20108;-80
2022/04/25 13:41:34;;;;;;;15.85;10.07;;;;;;;;;;6275144;28;20021;-80
2022/04/25 13:44:34;;;;;;;14.57;9.27;;;;;;;;;;6281120;28;20024;-80
2022/04/25 13:47:35;;;;;;;16.60;9.50;;;;;;;;;;6284256;28;20467;-81
2022/04/25 13:50:35;;;;;;;16.73;8.53;;;;;;;;;;6276009;28;20496;-81
2022/04/25 13:53:35;;;;;;;32.35;22.15;;;;;;;;;;6270773;28;20032;-80
2022/04/25 13:56:36;;;;;;;15.23;10.17;;;;;;;;;;6293155;28;20036;-80
2022/04/25 13:59:36;;;;;;;17.90;12.65;;;;;;;;;;6296048;28;20317;-79
2022/04/25 14:05:55;;;;;;;14.05;11.02;;;;;;;;;;6291331;28;20364;-79
2022/04/25 14:08:57;;;;;;;19.13;12.67;;;;;;;;;;6271925;28;20028;-78
2022/04/25 14:11:58;;;;;;;24.25;18.05;;;;;;;;;;6271260;28;20287;-79
2022/04/25 14:14:58;;;;;;;21.57;17.47;;;;;;;;;;6269914;28;20025;-79
2022/04/25 14:17:58;;;;;;;20.10;16.97;;;;;;;;;;6270459;28;20028;-80
2022/04/25 14:20:59;;;;;;;20.83;14.15;;;;;;;;;;6273524;28;20020;-79
2022/04/25 14:23:59;;;;;;;19.70;14.10;;;;;;;;;;6284097;28;20123;-80
2022/04/25 14:27:00;;;;;;;21.75;14.20;;;;;;;;;;6271245;28;20021;-80
2022/04/25 14:30:00;;;;;;;16.23;10.30;;;;;;;;;;6283537;28;20031;-80
2022/04/25 14:33:00;;;;;;;15.15;11.52;;;;;;;;;;6292245;28;20016;-80
2022/04/25 14:36:03;;;;;;;18.77;13.05;;;;;;;;;;6277446;28;20029;-80
2022/04/25 14:39:03;;;;;;;13.73;9.73;;;;;;;;;;6284961;28;20036;-80
2022/04/25 14:42:04;;;;;;;16.33;8.33;;;;;;;;;;6293876;28;20020;-80
2022/04/25 14:45:04;;;;;;;10.63;8.20;;;;;;;;;;6291929;28;20070;-80
2022/04/25 14:48:05;;;;;;;14.15;8.07;;;;;;;;;;6291846;28;20013;-80
2022/04/25 14:54:30;;;;;;;15.25;12.57;;;;;;;;;;6295040;28;20032;-80
2022/04/25 14:57:30;;;;;;;8.20;6.10;;;;;;;;;;6285235;28;20397;-80
2022/04/25 15:00:31;;;;;;;35.40;20.30;;;;;;;;;;6268364;28;20052;-80
2022/04/25 15:03:31;;;;;;;31.03;19.47;;;;;;;;;;6278449;28;20380;-81
2022/04/25 15:06:31;;;;;;;19.88;10.18;;;;;;;;;;6279537;28;20013;-80
2022/04/25 15:09:31;;;;;;;16.15;9.30;;;;;;;;;;6268726;28;20013;-80
2022/04/25 15:12:32;;;;;;;13.67;10.20;;;;;;;;;;6271421;28;20044;-80
2022/04/25 15:15:32;;;;;;;25.70;13.20;;;;;;;;;;6269135;28;20487;-80
2022/04/25 15:18:33;;;;;;;12.57;8.40;;;;;;;;;;6271889;28;20820;-80
2022/04/25 15:21:33;;;;;;;16.90;10.75;;;;;;;;;;6281658;28;20047;-80
2022/04/25 15:24:34;;;;;;;22.83;13.63;;;;;;;;;;6287754;28;20021;-80
2022/04/25 15:27:36;;;;;;;17.10;11.40;;;;;;;;;;6277454;28;20019;-80
2022/04/25 15:30:36;;;;;;;29.52;21.33;;;;;;;;;;6282727;28;20014;-80
2022/04/25 15:33:36;;;;;;;16.13;9.00;;;;;;;;;;6267501;28;20032;-80
2022/04/25 15:36:37;;;;;;;19.13;11.50;;;;;;;;;;6290916;28;20365;-80
2022/04/25 15:39:37;;;;;;;13.57;7.57;;;;;;;;;;6281208;28;20047;-80
2022/04/25 15:42:37;;;;;;;15.20;8.37;;;;;;;;;;6268805;28;20017;-80
2022/04/25 15:45:39;;;;;;;12.68;7.43;;;;;;;;;;6274424;28;20293;-81
2022/04/25 15:48:39;;;;;;;16.52;10.05;;;;;;;;;;6277785;28;20066;-81
2022/04/25 15:51:40;;;;;;;17.00;12.13;;;;;;;;;;6276234;28;20422;-81
2022/04/25 15:57:59;;;;;;;26.77;20.35;;;;;;;;;;6268264;28;20583;-81
2022/04/25 16:00:59;;;;;;;18.23;10.07;;;;;;;;;;6267010;28;20055;-81
2022/04/25 16:03:59;;;;;;;29.13;19.95;;;;;;;;;;6280784;28;20832;-81
2022/04/25 16:07:00;;;;;;;13.30;9.55;;;;;;;;;;6287551;28;20009;-82
2022/04/25 16:10:00;;;;;;;20.58;11.57;;;;;;;;;;6280562;28;20179;-82
2022/04/25 16:13:02;;;;;;;23.90;14.98;;;;;;;;;;6250483;28;20508;-83
2022/04/25 16:16:03;;;;;;;24.48;17.40;;;;;;;;;;6268547;28;20032;-82
2022/04/25 16:19:03;;;;;;;12.05;8.68;;;;;;;;;;6268812;28;20532;-83
2022/04/25 16:22:03;;;;;;;27.55;17.70;;;;;;;;;;6268532;28;20040;-83
2022/04/25 16:25:04;;;;;;;26.75;16.45;;;;;;;;;;6282388;28;20013;-83
2022/04/25 16:28:04;;;;;;;21.35;13.60;;;;;;;;;;6291542;28;20020;-84
2022/04/25 16:31:05;;;;;;;34.70;18.60;;;;;;;;;;6292677;28;20016;-83
2022/04/25 16:34:05;;;;;;;38.70;22.57;;;;;;;;;;6290248;28;20431;-83
2022/04/25 16:37:06;;;;;;;24.10;18.63;;;;;;;;;;6267974;28;20325;-83
2022/04/25 16:40:06;;;;;;;21.88;15.23;;;;;;;;;;6273232;28;20826;-83
2022/04/25 16:43:07;;;;;;;36.85;22.88;;;;;;;;;;6292914;28;20056;-83
2022/04/25 16:46:07;;;;;;;37.90;22.15;;;;;;;;;;6287282;28;20028;-82
2022/04/25 16:49:11;;;;;;;29.73;19.13;;;;;;;;;;6296115;28;20056;-82
2022/04/25 16:52:11;;;;;;;51.42;31.73;;;;;;;;;;6294322;28;20024;-82
2022/04/25 16:55:11;;;;;;;64.50;40.60;;;;;;;;;;6281209;28;20081;-82
2022/04/25 16:58:11;;;;;;;21.50;12.63;;;;;;;;;;6296019;28;20316;-82
2022/04/25 17:01:12;;;;;;;22.23;14.85;;;;;;;;;;6296784;28;20269;-81
2022/04/25 17:04:12;;;;;;;23.00;16.23;;;;;;;;;;6274697;28;20136;-82
2022/04/25 17:07:13;;;;;;;20.73;11.48;;;;;;;;;;6287207;28;20017;-82
2022/04/25 17:10:16;;;;;;;22.80;13.90;;;;;;;;;;6272172;28;20483;-81
2022/04/25 17:13:18;;;;;;;31.42;21.13;;;;;;;;;;6291116;28;20508;-82
2022/04/25 17:16:19;;;;;;;26.83;18.80;;;;;;;;;;6285434;28;20083;-81
2022/04/25 17:19:19;;;;;;;32.42;20.77;;;;;;;;;;6288377;28;20096;-81
2022/04/25 17:22:19;;;;;;;35.45;22.23;;;;;;;;;;6273225;28;20383;-81
2022/04/25 17:25:19;;;;;;;63.57;43.30;;;;;;;;;;6274670;28;20083;-81
2022/04/25 17:28:20;;;;;;;69.97;48.67;;;;;;;;;;6274831;28;20266;-82
